Weather at Cape Town International Airport

Public forecast

Using degrees Celsius for public forecast. Weather courtesy of forecast.io.

Current aviation weather report (METAR) for Cape Town International Airport

2024/05/29 23:00 (retrieved 54 minutes ago)

FACT 292300Z 36018KT 9999 SCT020 BKN040 17/13 Q1009 NOSIG

Aviation forecast (TAF) for Cape Town International Airport

2024/05/29 18:14 (retrieved 6 hours ago)

TAF FACT 291600Z 2918/3024 32015KT 9999 BKN014 TX19/3012Z TN14/3005Z PROB40 TEMPO 3000/3007 32022G35KT 4000 -DZ BKN010 PROB40 TEMPO 3003/3006 3000 -RA BKN006 FM300700 24010KT 9999 -SHRA BKN020 FM301600 VRB03KT 9999 BKN020